sensor_id;sensor_type;location;lat;lon;timestamp;pressure;altitude;pressure_sealevel;temperature;humidity
2675;BME280;1347;42.122;24.746;2023-12-20T00:00:38;99947.06;;;2.50;100.00
2675;BME280;1347;42.122;24.746;2023-12-20T00:03:04;99941.72;;;2.59;100.00
2675;BME280;1347;42.122;24.746;2023-12-20T00:05:31;99943.75;;;2.53;100.00
2675;BME280;1347;42.122;24.746;2023-12-20T00:07:58;99941.06;;;2.53;100.00
2675;BME280;1347;42.122;24.746;2023-12-20T00:10:25;99932.53;;;2.46;100.00
2675;BME280;1347;42.122;24.746;2023-12-20T00:12:54;99931.50;;;2.34;100.00
2675;BME280;1347;42.122;24.746;2023-12-20T00:15:20;99923.78;;;2.27;100.00
2675;BME280;1347;42.122;24.746;2023-12-20T00:17:47;99924.38;;;2.24;100.00
2675;BME280;1347;42.122;24.746;2023-12-20T00:20:14;99933.84;;;2.13;100.00
2675;BME280;1347;42.122;24.746;2023-12-20T00:22:41;99926.03;;;1.98;100.00
2675;BME280;1347;42.122;24.746;2023-12-20T00:25:08;99932.25;;;1.98;100.00
2675;BME280;1347;42.122;24.746;2023-12-20T00:27:35;99929.16;;;1.91;100.00
2675;BME280;1347;42.122;24.746;2023-12-20T00:30:04;99927.75;;;1.80;100.00
2675;BME280;1347;42.122;24.746;2023-12-20T00:32:31;99924.47;;;1.69;100.00
2675;BME280;1347;42.122;24.746;2023-12-20T00:34:58;99922.94;;;1.63;100.00
2675;BME280;1347;42.122;24.746;2023-12-20T00:37:25;99906.63;;;1.55;100.00
2675;BME280;1347;42.122;24.746;2023-12-20T00:39:51;99906.16;;;1.53;100.00
2675;BME280;1347;42.122;24.746;2023-12-20T00:42:18;99905.66;;;1.51;100.00
2675;BME280;1347;42.122;24.746;2023-12-20T00:44:45;99897.25;;;1.52;100.00
2675;BME280;1347;42.122;24.746;2023-12-20T00:47:13;99888.13;;;1.48;100.00
2675;BME280;1347;42.122;24.746;2023-12-20T00:49:40;99892.44;;;1.49;100.00
2675;BME280;1347;42.122;24.746;2023-12-20T00:52:07;99889.75;;;1.49;100.00
2675;BME280;1347;42.122;24.746;2023-12-20T00:54:34;99883.25;;;1.50;100.00
2675;BME280;1347;42.122;24.746;2023-12-20T00:57:01;99879.91;;;1.53;100.00
2675;BME280;1347;42.122;24.746;2023-12-20T00:59:28;99872.63;;;1.54;100.00
2675;BME280;1347;42.122;24.746;2023-12-20T01:01:54;99870.72;;;1.54;100.00
2675;BME280;1347;42.122;24.746;2023-12-20T01:04:23;99882.41;;;1.63;100.00
2675;BME280;1347;42.122;24.746;2023-12-20T01:06:49;99870.72;;;1.68;100.00
2675;BME280;1347;42.122;24.746;2023-12-20T01:09:16;99869.72;;;1.64;100.00
2675;BME280;1347;42.122;24.746;2023-12-20T01:11:44;99865.09;;;1.64;100.00
2675;BME280;1347;42.122;24.746;2023-12-20T01:14:12;99864.50;;;1.54;100.00
2675;BME280;1347;42.122;24.746;2023-12-20T01:16:39;99854.22;;;1.69;100.00
2675;BME280;1347;42.122;24.746;2023-12-20T01:19:05;99857.13;;;1.73;100.00
2675;BME280;1347;42.122;24.746;2023-12-20T01:21:34;99851.72;;;1.73;100.00
2675;BME280;1347;42.122;24.746;2023-12-20T01:24:00;99846.84;;;1.83;100.00
2675;BME280;1347;42.122;24.746;2023-12-20T01:26:27;99844.56;;;1.91;100.00
2675;BME280;1347;42.122;24.746;2023-12-20T01:28:54;99836.25;;;1.87;100.00
2675;BME280;1347;42.122;24.746;2023-12-20T01:31:21;99831.06;;;1.91;100.00
2675;BME280;1347;42.122;24.746;2023-12-20T01:33:48;99839.03;;;1.96;100.00
2675;BME280;1347;42.122;24.746;2023-12-20T01:36:15;99835.28;;;2.05;100.00
2675;BME280;1347;42.122;24.746;2023-12-20T01:38:43;99828.91;;;2.01;100.00
2675;BME280;1347;42.122;24.746;2023-12-20T01:41:10;99835.13;;;2.02;100.00
2675;BME280;1347;42.122;24.746;2023-12-20T01:43:36;99825.28;;;2.06;100.00
2675;BME280;1347;42.122;24.746;2023-12-20T01:46:03;99832.59;;;2.05;100.00
2675;BME280;1347;42.122;24.746;2023-12-20T01:48:30;99832.78;;;2.09;100.00
2675;BME280;1347;42.122;24.746;2023-12-20T01:50:58;99817.75;;;2.16;100.00
2675;BME280;1347;42.122;24.746;2023-12-20T01:53:27;99822.03;;;2.17;100.00
2675;BME280;1347;42.122;24.746;2023-12-20T01:55:57;99815.09;;;2.25;100.00
2675;BME280;1347;42.122;24.746;2023-12-20T01:58:25;99804.38;;;2.34;100.00
2675;BME280;1347;42.122;24.746;2023-12-20T02:00:52;99810.63;;;2.43;100.00
2675;BME280;1347;42.122;24.746;2023-12-20T02:03:20;99799.63;;;2.39;100.00
2675;BME280;1347;42.122;24.746;2023-12-20T02:05:48;99792.78;;;2.42;100.00
2675;BME280;1347;42.122;24.746;2023-12-20T02:08:14;99791.81;;;2.38;100.00
2675;BME280;1347;42.122;24.746;2023-12-20T02:10:41;99791.94;;;2.33;100.00
2675;BME280;1347;42.122;24.746;2023-12-20T02:13:10;99781.59;;;2.35;100.00
2675;BME280;1347;42.122;24.746;2023-12-20T02:15:36;99781.94;;;2.33;100.00
2675;BME280;1347;42.122;24.746;2023-12-20T02:18:04;99787.00;;;2.35;100.00
2675;BME280;1347;42.122;24.746;2023-12-20T02:20:31;99784.00;;;2.36;100.00
2675;BME280;1347;42.122;24.746;2023-12-20T02:22:59;99778.88;;;2.35;100.00
2675;BME280;1347;42.122;24.746;2023-12-20T02:25:26;99773.88;;;2.42;100.00
2675;BME280;1347;42.122;24.746;2023-12-20T02:27:53;99775.38;;;2.34;100.00
2675;BME280;1347;42.122;24.746;2023-12-20T02:30:20;99774.59;;;2.34;100.00
2675;BME280;1347;42.122;24.746;2023-12-20T02:32:47;99773.00;;;2.33;100.00
2675;BME280;1347;42.122;24.746;2023-12-20T02:35:15;99765.19;;;2.31;100.00
2675;BME280;1347;42.122;24.746;2023-12-20T02:37:42;99760.59;;;2.32;100.00
2675;BME280;1347;42.122;24.746;2023-12-20T02:40:10;99772.22;;;2.32;100.00
2675;BME280;1347;42.122;24.746;2023-12-20T02:42:37;99773.00;;;2.33;100.00
2675;BME280;1347;42.122;24.746;2023-12-20T02:45:05;99767.09;;;2.31;100.00
2675;BME280;1347;42.122;24.746;2023-12-20T02:47:31;99757.84;;;2.23;100.00
2675;BME280;1347;42.122;24.746;2023-12-20T02:49:58;99757.03;;;2.22;100.00
2675;BME280;1347;42.122;24.746;2023-12-20T02:52:28;99754.44;;;2.17;100.00
2675;BME280;1347;42.122;24.746;2023-12-20T02:54:55;99737.09;;;2.18;100.00
2675;BME280;1347;42.122;24.746;2023-12-20T02:57:23;99741.06;;;2.12;100.00
2675;BME280;1347;42.122;24.746;2023-12-20T02:59:50;99740.25;;;2.12;100.00
2675;BME280;1347;42.122;24.746;2023-12-20T03:02:17;99750.13;;;2.16;100.00
2675;BME280;1347;42.122;24.746;2023-12-20T03:04:43;99747.94;;;2.18;100.00
2675;BME280;1347;42.122;24.746;2023-12-20T03:07:10;99736.81;;;2.20;100.00
2675;BME280;1347;42.122;24.746;2023-12-20T03:09:37;99734.22;;;2.15;100.00
2675;BME280;1347;42.122;24.746;2023-12-20T03:12:04;99730.41;;;2.16;100.00
2675;BME280;1347;42.122;24.746;2023-12-20T03:14:33;99732.75;;;2.09;100.00
2675;BME280;1347;42.122;24.746;2023-12-20T03:16:59;99732.94;;;2.12;100.00
2675;BME280;1347;42.122;24.746;2023-12-20T03:19:26;99734.66;;;2.08;100.00
2675;BME280;1347;42.122;24.746;2023-12-20T03:21:54;99732.56;;;2.05;100.00
2675;BME280;1347;42.122;24.746;2023-12-20T03:24:21;99725.88;;;2.03;100.00
2675;BME280;1347;42.122;24.746;2023-12-20T03:26:48;99730.78;;;2.01;100.00
2675;BME280;1347;42.122;24.746;2023-12-20T03:29:14;99726.19;;;2.01;100.00
2675;BME280;1347;42.122;24.746;2023-12-20T03:31:43;99724.63;;;2.09;100.00
2675;BME280;1347;42.122;24.746;2023-12-20T03:34:09;99722.00;;;1.95;100.00
2675;BME280;1347;42.122;24.746;2023-12-20T03:36:36;99713.56;;;1.97;100.00
2675;BME280;1347;42.122;24.746;2023-12-20T03:39:04;99718.03;;;1.93;100.00
2675;BME280;1347;42.122;24.746;2023-12-20T03:41:31;99717.03;;;1.89;100.00
2675;BME280;1347;42.122;24.746;2023-12-20T03:43:57;99709.53;;;1.85;100.00
2675;BME280;1347;42.122;24.746;2023-12-20T03:46:24;99713.53;;;1.88;100.00
2675;BME280;1347;42.122;24.746;2023-12-20T03:48:52;99710.31;;;1.86;100.00
2675;BME280;1347;42.122;24.746;2023-12-20T03:51:19;99715.66;;;1.77;100.00
2675;BME280;1347;42.122;24.746;2023-12-20T03:53:46;99716.66;;;1.81;100.00
2675;BME280;1347;42.122;24.746;2023-12-20T03:56:13;99724.78;;;1.81;100.00
2675;BME280;1347;42.122;24.746;2023-12-20T03:58:40;99716.47;;;1.78;100.00
2675;BME280;1347;42.122;24.746;2023-12-20T04:01:09;99720.00;;;1.65;100.00
2675;BME280;1347;42.122;24.746;2023-12-20T04:03:37;99722.41;;;1.66;100.00
2675;BME280;1347;42.122;24.746;2023-12-20T04:06:06;99719.44;;;1.54;100.00
2675;BME280;1347;42.122;24.746;2023-12-20T04:08:33;99710.66;;;1.48;100.00
2675;BME280;1347;42.122;24.746;2023-12-20T04:10:59;99707.03;;;1.53;100.00
2675;BME280;1347;42.122;24.746;2023-12-20T04:13:26;99710.22;;;1.55;100.00
2675;BME280;1347;42.122;24.746;2023-12-20T04:15:53;99711.56;;;1.44;100.00
2675;BME280;1347;42.122;24.746;2023-12-20T04:18:20;99714.97;;;1.50;100.00
2675;BME280;1347;42.122;24.746;2023-12-20T04:20:47;99711.63;;;1.30;100.00
2675;BME280;1347;42.122;24.746;2023-12-20T04:23:16;99715.50;;;1.24;100.00
2675;BME280;1347;42.122;24.746;2023-12-20T04:25:43;99709.22;;;1.15;100.00
2675;BME280;1347;42.122;24.746;2023-12-20T04:28:09;99704.31;;;1.17;100.00
2675;BME280;1347;42.122;24.746;2023-12-20T04:30:36;99711.13;;;1.15;100.00
2675;BME280;1347;42.122;24.746;2023-12-20T04:33:03;99705.63;;;1.20;100.00
2675;BME280;1347;42.122;24.746;2023-12-20T04:35:30;99707.31;;;1.16;100.00
2675;BME280;1347;42.122;24.746;2023-12-20T04:37:57;99702.84;;;1.11;100.00
2675;BME280;1347;42.122;24.746;2023-12-20T04:40:25;99701.25;;;1.10;100.00
2675;BME280;1347;42.122;24.746;2023-12-20T04:42:52;99696.94;;;1.09;100.00
2675;BME280;1347;42.122;24.746;2023-12-20T04:45:19;99691.56;;;1.09;100.00
2675;BME280;1347;42.122;24.746;2023-12-20T04:47:45;99692.34;;;1.09;100.00
2675;BME280;1347;42.122;24.746;2023-12-20T04:50:13;99684.63;;;1.17;100.00
2675;BME280;1347;42.122;24.746;2023-12-20T04:52:40;99679.66;;;1.10;100.00
2675;BME280;1347;42.122;24.746;2023-12-20T04:55:07;99679.22;;;1.17;100.00
2675;BME280;1347;42.122;24.746;2023-12-20T04:57:35;99674.94;;;1.16;100.00
2675;BME280;1347;42.122;24.746;2023-12-20T05:00:02;99686.72;;;1.20;100.00
2675;BME280;1347;42.122;24.746;2023-12-20T05:02:30;99688.94;;;1.18;100.00
2675;BME280;1347;42.122;24.746;2023-12-20T05:04:57;99674.84;;;1.21;100.00
2675;BME280;1347;42.122;24.746;2023-12-20T05:07:23;99675.72;;;1.16;100.00
2675;BME280;1347;42.122;24.746;2023-12-20T05:09:50;99676.31;;;1.13;100.00
2675;BME280;1347;42.122;24.746;2023-12-20T05:12:17;99680.75;;;1.09;100.00
2675;BME280;1347;42.122;24.746;2023-12-20T05:14:46;99676.16;;;1.09;100.00
2675;BME280;1347;42.122;24.746;2023-12-20T05:17:13;99671.94;;;1.03;100.00
2675;BME280;1347;42.122;24.746;2023-12-20T05:19:39;99666.56;;;1.03;100.00
2675;BME280;1347;42.122;24.746;2023-12-20T05:22:06;99656.16;;;0.97;100.00
2675;BME280;1347;42.122;24.746;2023-12-20T05:24:33;99664.19;;;0.88;100.00
2675;BME280;1347;42.122;24.746;2023-12-20T05:27:00;99669.50;;;0.80;100.00
2675;BME280;1347;42.122;24.746;2023-12-20T05:29:27;99661.69;;;0.78;100.00
2675;BME280;1347;42.122;24.746;2023-12-20T05:31:55;99657.09;;;0.65;100.00
2675;BME280;1347;42.122;24.746;2023-12-20T05:34:22;99656.59;;;0.63;100.00
2675;BME280;1347;42.122;24.746;2023-12-20T05:36:48;99648.41;;;0.54;100.00
2675;BME280;1347;42.122;24.746;2023-12-20T05:39:15;99648.69;;;0.53;100.00
2675;BME280;1347;42.122;24.746;2023-12-20T05:41:42;99640.00;;;0.42;100.00
2675;BME280;1347;42.122;24.746;2023-12-20T05:44:09;99643.59;;;0.51;100.00
2675;BME280;1347;42.122;24.746;2023-12-20T05:46:36;99642.50;;;0.52;100.00
2675;BME280;1347;42.122;24.746;2023-12-20T05:49:04;99637.31;;;0.56;100.00
2675;BME280;1347;42.122;24.746;2023-12-20T05:51:31;99638.94;;;0.57;100.00
2675;BME280;1347;42.122;24.746;2023-12-20T05:53:58;99638.13;;;0.56;100.00
2675;BME280;1347;42.122;24.746;2023-12-20T05:56:25;99640.50;;;0.44;100.00
2675;BME280;1347;42.122;24.746;2023-12-20T05:58:51;99632.63;;;0.48;100.00
2675;BME280;1347;42.122;24.746;2023-12-20T06:01:18;99635.03;;;0.49;100.00
2675;BME280;1347;42.122;24.746;2023-12-20T06:03:45;99632.84;;;0.38;100.00
2675;BME280;1347;42.122;24.746;2023-12-20T06:06:13;99627.94;;;0.40;100.00
2675;BME280;1347;42.122;24.746;2023-12-20T06:08:41;99627.22;;;0.34;100.00
2675;BME280;1347;42.122;24.746;2023-12-20T06:11:08;99626.44;;;0.33;100.00
2675;BME280;1347;42.122;24.746;2023-12-20T06:13:35;99626.72;;;0.32;100.00
2675;BME280;1347;42.122;24.746;2023-12-20T06:16:04;99624.53;;;0.34;100.00
2675;BME280;1347;42.122;24.746;2023-12-20T06:18:31;99632.03;;;0.37;100.00
2675;BME280;1347;42.122;24.746;2023-12-20T06:20:58;99633.72;;;0.33;100.00
2675;BME280;1347;42.122;24.746;2023-12-20T06:23:26;99631.75;;;0.39;100.00
2675;BME280;1347;42.122;24.746;2023-12-20T06:25:55;99622.66;;;0.48;100.00
2675;BME280;1347;42.122;24.746;2023-12-20T06:28:21;99617.34;;;0.57;100.00
2675;BME280;1347;42.122;24.746;2023-12-20T06:30:48;99624.53;;;0.61;100.00
2675;BME280;1347;42.122;24.746;2023-12-20T06:33:15;99622.03;;;0.65;100.00
2675;BME280;1347;42.122;24.746;2023-12-20T06:35:44;99618.22;;;0.80;100.00
2675;BME280;1347;42.122;24.746;2023-12-20T06:38:11;99617.22;;;0.89;100.00
2675;BME280;1347;42.122;24.746;2023-12-20T06:40:39;99628.38;;;0.96;100.00
2675;BME280;1347;42.122;24.746;2023-12-20T06:43:06;99624.16;;;1.04;100.00
2675;BME280;1347;42.122;24.746;2023-12-20T06:45:33;99623.63;;;1.16;100.00
2675;BME280;1347;42.122;24.746;2023-12-20T06:48:00;99628.81;;;1.26;100.00
2675;BME280;1347;42.122;24.746;2023-12-20T06:50:27;99619.53;;;1.18;100.00
2675;BME280;1347;42.122;24.746;2023-12-20T06:52:54;99621.81;;;1.25;100.00
2675;BME280;1347;42.122;24.746;2023-12-20T06:55:20;99617.66;;;1.41;100.00
2675;BME280;1347;42.122;24.746;2023-12-20T06:57:49;99614.16;;;1.40;100.00
2675;BME280;1347;42.122;24.746;2023-12-20T07:00:16;99609.06;;;1.61;100.00
2675;BME280;1347;42.122;24.746;2023-12-20T07:02:45;99616.19;;;1.79;100.00
2675;BME280;1347;42.122;24.746;2023-12-20T07:05:16;99606.22;;;1.89;100.00
2675;BME280;1347;42.122;24.746;2023-12-20T07:07:45;99612.94;;;2.00;100.00
2675;BME280;1347;42.122;24.746;2023-12-20T07:10:12;99606.59;;;2.04;100.00
2675;BME280;1347;42.122;24.746;2023-12-20T07:12:38;99599.81;;;2.15;100.00
2675;BME280;1347;42.122;24.746;2023-12-20T07:15:08;99605.31;;;2.33;100.00
2675;BME280;1347;42.122;24.746;2023-12-20T07:17:35;99603.75;;;2.49;100.00
2675;BME280;1347;42.122;24.746;2023-12-20T07:20:02;99600.94;;;2.54;100.00
2675;BME280;1347;42.122;24.746;2023-12-20T07:22:29;99598.38;;;2.57;100.00
2675;BME280;1347;42.122;24.746;2023-12-20T07:24:57;99594.25;;;2.69;100.00
2675;BME280;1347;42.122;24.746;2023-12-20T07:27:23;99593.03;;;2.83;100.00
2675;BME280;1347;42.122;24.746;2023-12-20T07:29:51;99588.88;;;2.86;100.00
2675;BME280;1347;42.122;24.746;2023-12-20T07:32:19;99585.25;;;2.99;100.00
2675;BME280;1347;42.122;24.746;2023-12-20T07:34:46;99581.09;;;3.10;100.00
2675;BME280;1347;42.122;24.746;2023-12-20T07:37:13;99579.19;;;3.19;100.00
2675;BME280;1347;42.122;24.746;2023-12-20T07:39:40;99580.63;;;3.08;100.00
2675;BME280;1347;42.122;24.746;2023-12-20T07:42:07;99588.75;;;3.51;100.00
2675;BME280;1347;42.122;24.746;2023-12-20T07:44:34;99589.19;;;5.47;100.00
2675;BME280;1347;42.122;24.746;2023-12-20T07:47:01;99587.63;;;8.40;100.00
2675;BME280;1347;42.122;24.746;2023-12-20T07:49:30;99597.50;;;11.05;87.53
2675;BME280;1347;42.122;24.746;2023-12-20T07:51:57;99609.16;;;13.28;74.90
2675;BME280;1347;42.122;24.746;2023-12-20T07:54:24;99603.59;;;15.03;68.11
2675;BME280;1347;42.122;24.746;2023-12-20T07:56:51;99592.75;;;15.73;60.03
2675;BME280;1347;42.122;24.746;2023-12-20T07:59:18;99596.78;;;17.20;51.22
2675;BME280;1347;42.122;24.746;2023-12-20T08:01:44;99598.44;;;17.48;50.02
2675;BME280;1347;42.122;24.746;2023-12-20T08:04:11;99589.47;;;18.01;49.00
2675;BME280;1347;42.122;24.746;2023-12-20T08:06:39;99589.38;;;18.08;45.74
2675;BME280;1347;42.122;24.746;2023-12-20T08:09:06;99587.16;;;18.96;44.07
2675;BME280;1347;42.122;24.746;2023-12-20T08:11:36;99581.69;;;18.93;43.45
2675;BME280;1347;42.122;24.746;2023-12-20T08:14:03;99584.03;;;19.77;42.46
2675;BME280;1347;42.122;24.746;2023-12-20T08:16:30;99589.16;;;18.96;42.40
2675;BME280;1347;42.122;24.746;2023-12-20T08:18:57;99593.81;;;19.02;42.25
2675;BME280;1347;42.122;24.746;2023-12-20T08:21:23;99595.28;;;20.90;40.34
2675;BME280;1347;42.122;24.746;2023-12-20T08:23:52;99594.84;;;21.66;39.11
2675;BME280;1347;42.122;24.746;2023-12-20T08:26:19;99588.13;;;22.43;37.46
2675;BME280;1347;42.122;24.746;2023-12-20T08:28:48;99592.81;;;22.46;36.37
2675;BME280;1347;42.122;24.746;2023-12-20T08:31:15;99588.22;;;23.12;35.58
2675;BME280;1347;42.122;24.746;2023-12-20T08:33:43;99580.44;;;22.94;35.70
2675;BME280;1347;42.122;24.746;2023-12-20T08:36:10;99573.88;;;22.88;35.45
2675;BME280;1347;42.122;24.746;2023-12-20T08:38:37;99559.06;;;21.36;37.01
2675;BME280;1347;42.122;24.746;2023-12-20T08:41:06;99553.25;;;19.48;39.81
2675;BME280;1347;42.122;24.746;2023-12-20T08:43:34;99544.53;;;17.83;42.13
2675;BME280;1347;42.122;24.746;2023-12-20T08:46:01;99545.59;;;16.49;44.95
2675;BME280;1347;42.122;24.746;2023-12-20T08:48:28;99531.44;;;15.01;47.45
2675;BME280;1347;42.122;24.746;2023-12-20T08:50:55;99524.41;;;14.26;49.58
2675;BME280;1347;42.122;24.746;2023-12-20T08:53:22;99517.94;;;13.37;52.41
2675;BME280;1347;42.122;24.746;2023-12-20T08:55:49;99513.03;;;12.98;53.58
2675;BME280;1347;42.122;24.746;2023-12-20T08:58:17;99510.53;;;12.72;55.36
2675;BME280;1347;42.122;24.746;2023-12-20T09:00:45;99504.75;;;12.91;54.80
2675;BME280;1347;42.122;24.746;2023-12-20T09:03:12;99501.16;;;12.83;55.93
2675;BME280;1347;42.122;24.746;2023-12-20T09:05:38;99501.75;;;13.17;55.60
2675;BME280;1347;42.122;24.746;2023-12-20T09:08:06;99488.13;;;13.53;54.35
2675;BME280;1347;42.122;24.746;2023-12-20T09:10:35;99487.63;;;13.26;53.86
2675;BME280;1347;42.122;24.746;2023-12-20T09:13:02;99486.03;;;13.21;53.40
2675;BME280;1347;42.122;24.746;2023-12-20T09:15:31;99476.38;;;12.76;53.79
2675;BME280;1347;42.122;24.746;2023-12-20T09:17:59;99470.31;;;12.53;54.58
2675;BME280;1347;42.122;24.746;2023-12-20T09:20:26;99460.00;;;12.36;55.66
2675;BME280;1347;42.122;24.746;2023-12-20T09:22:53;99455.13;;;12.08;56.19
2675;BME280;1347;42.122;24.746;2023-12-20T09:25:20;99450.56;;;11.82;56.98
2675;BME280;1347;42.122;24.746;2023-12-20T09:27:48;99448.59;;;11.83;57.64
2675;BME280;1347;42.122;24.746;2023-12-20T09:30:15;99448.75;;;11.56;57.69
2675;BME280;1347;42.122;24.746;2023-12-20T09:32:43;99448.47;;;11.72;57.82
2675;BME280;1347;42.122;24.746;2023-12-20T09:35:11;99441.69;;;11.99;57.45
2675;BME280;1347;42.122;24.746;2023-12-20T09:37:38;99445.19;;;12.54;56.94
2675;BME280;1347;42.122;24.746;2023-12-20T09:40:08;99437.53;;;12.88;55.76
2675;BME280;1347;42.122;24.746;2023-12-20T09:42:42;99425.00;;;13.05;55.12
2675;BME280;1347;42.122;24.746;2023-12-20T09:45:15;99414.47;;;13.21;54.04
2675;BME280;1347;42.122;24.746;2023-12-20T09:47:46;99411.59;;;12.93;54.89
2675;BME280;1347;42.122;24.746;2023-12-20T09:50:13;99394.28;;;12.85;54.04
2675;BME280;1347;42.122;24.746;2023-12-20T09:52:41;99398.47;;;12.51;54.64
2675;BME280;1347;42.122;24.746;2023-12-20T09:55:10;99388.25;;;12.55;54.48
2675;BME280;1347;42.122;24.746;2023-12-20T09:57:37;99402.28;;;12.36;55.22
2675;BME280;1347;42.122;24.746;2023-12-20T10:00:05;99395.19;;;12.28;55.52
2675;BME280;1347;42.122;24.746;2023-12-20T10:02:32;99389.88;;;11.98;56.01
2675;BME280;1347;42.122;24.746;2023-12-20T10:05:02;99381.78;;;11.68;57.18
2675;BME280;1347;42.122;24.746;2023-12-20T10:07:34;99372.69;;;11.60;57.03
2675;BME280;1347;42.122;24.746;2023-12-20T10:10:02;99363.09;;;11.40;57.26
2675;BME280;1347;42.122;24.746;2023-12-20T10:12:28;99360.19;;;11.22;58.29
2675;BME280;1347;42.122;24.746;2023-12-20T10:14:57;99359.16;;;10.97;59.12
2675;BME280;1347;42.122;24.746;2023-12-20T10:17:27;99345.16;;;10.39;61.38
2675;BME280;1347;42.122;24.746;2023-12-20T10:19:55;99353.06;;;10.44;61.90
2675;BME280;1347;42.122;24.746;2023-12-20T10:22:23;99340.09;;;10.41;62.74
2675;BME280;1347;42.122;24.746;2023-12-20T10:24:51;99334.13;;;10.65;61.94
2675;BME280;1347;42.122;24.746;2023-12-20T10:27:18;99337.78;;;10.76;61.90
2675;BME280;1347;42.122;24.746;2023-12-20T10:29:45;99329.63;;;10.50;63.39
2675;BME280;1347;42.122;24.746;2023-12-20T10:32:22;99321.63;;;10.08;64.10
2675;BME280;1347;42.122;24.746;2023-12-20T10:34:50;99315.41;;;10.11;64.39
2675;BME280;1347;42.122;24.746;2023-12-20T10:37:18;99313.78;;;10.06;65.02
2675;BME280;1347;42.122;24.746;2023-12-20T10:39:49;99308.22;;;10.25;65.41
2675;BME280;1347;42.122;24.746;2023-12-20T10:42:18;99302.19;;;10.46;63.91
2675;BME280;1347;42.122;24.746;2023-12-20T10:44:46;99303.59;;;10.66;63.22
2675;BME280;1347;42.122;24.746;2023-12-20T10:47:13;99291.88;;;10.69;62.53
2675;BME280;1347;42.122;24.746;2023-12-20T10:49:41;99284.59;;;10.84;61.74
2675;BME280;1347;42.122;24.746;2023-12-20T10:52:09;99280.97;;;10.40;61.92
2675;BME280;1347;42.122;24.746;2023-12-20T10:54:38;99273.41;;;10.63;61.98
2675;BME280;1347;42.122;24.746;2023-12-20T10:57:06;99271.50;;;10.70;61.44
2675;BME280;1347;42.122;24.746;2023-12-20T10:59:36;99268.56;;;10.90;61.42
2675;BME280;1347;42.122;24.746;2023-12-20T11:02:04;99263.59;;;11.02;60.73
2675;BME280;1347;42.122;24.746;2023-12-20T11:04:38;99255.22;;;11.29;59.34
2675;BME280;1347;42.122;24.746;2023-12-20T11:07:13;99244.75;;;11.45;59.43
2675;BME280;1347;42.122;24.746;2023-12-20T11:09:49;99244.91;;;11.70;58.89
2675;BME280;1347;42.122;24.746;2023-12-20T11:12:32;99237.97;;;11.87;58.57
2675;BME280;1347;42.122;24.746;2023-12-20T11:14:59;99240.41;;;12.06;57.51
2675;BME280;1347;42.122;24.746;2023-12-20T11:17:29;99237.69;;;12.13;57.04
2675;BME280;1347;42.122;24.746;2023-12-20T11:20:05;99236.88;;;12.12;57.38
2675;BME280;1347;42.122;24.746;2023-12-20T11:22:33;99234.56;;;12.22;57.22
2675;BME280;1347;42.122;24.746;2023-12-20T11:25:04;99232.53;;;11.97;57.23
2675;BME280;1347;42.122;24.746;2023-12-20T11:27:35;99229.19;;;11.67;56.95
2675;BME280;1347;42.122;24.746;2023-12-20T11:30:04;99220.53;;;11.06;57.71
2675;BME280;1347;42.122;24.746;2023-12-20T11:32:34;99210.59;;;10.91;58.53
2675;BME280;1347;42.122;24.746;2023-12-20T11:35:16;99213.25;;;10.81;58.63
2675;BME280;1347;42.122;24.746;2023-12-20T11:37:45;99210.03;;;10.68;59.54
2675;BME280;1347;42.122;24.746;2023-12-20T11:40:14;99196.00;;;10.77;59.88
2675;BME280;1347;42.122;24.746;2023-12-20T11:42:45;99196.81;;;10.81;59.04
2675;BME280;1347;42.122;24.746;2023-12-20T11:45:15;99190.72;;;11.01;59.09
2675;BME280;1347;42.122;24.746;2023-12-20T11:47:43;99194.22;;;10.98;59.95
2675;BME280;1347;42.122;24.746;2023-12-20T11:50:11;99188.84;;;11.13;58.58
2675;BME280;1347;42.122;24.746;2023-12-20T11:52:38;99183.00;;;11.18;58.58
2675;BME280;1347;42.122;24.746;2023-12-20T11:55:06;99178.78;;;11.31;58.10
2675;BME280;1347;42.122;24.746;2023-12-20T11:57:33;99166.34;;;11.48;57.93
2675;BME280;1347;42.122;24.746;2023-12-20T12:00:02;99154.63;;;11.58;58.22
2675;BME280;1347;42.122;24.746;2023-12-20T12:02:29;99160.97;;;11.72;57.75
2675;BME280;1347;42.122;24.746;2023-12-20T12:04:56;99155.97;;;11.89;58.04
2675;BME280;1347;42.122;24.746;2023-12-20T12:07:24;99152.78;;;11.76;57.81
2675;BME280;1347;42.122;24.746;2023-12-20T12:09:51;99149.88;;;11.51;57.86
2675;BME280;1347;42.122;24.746;2023-12-20T12:12:19;99148.97;;;11.26;58.23
2675;BME280;1347;42.122;24.746;2023-12-20T12:14:46;99141.59;;;11.40;58.82
2675;BME280;1347;42.122;24.746;2023-12-20T12:17:14;99140.00;;;11.36;59.07
2675;BME280;1347;42.122;24.746;2023-12-20T12:19:42;99135.03;;;10.94;60.53
2675;BME280;1347;42.122;24.746;2023-12-20T12:22:11;99141.31;;;10.94;61.27
2675;BME280;1347;42.122;24.746;2023-12-20T12:24:39;99125.00;;;11.16;60.12
2675;BME280;1347;42.122;24.746;2023-12-20T12:27:06;99125.41;;;11.18;60.81
2675;BME280;1347;42.122;24.746;2023-12-20T12:29:34;99119.88;;;11.14;61.49
2675;BME280;1347;42.122;24.746;2023-12-20T12:32:04;99121.34;;;11.01;62.02
2675;BME280;1347;42.122;24.746;2023-12-20T12:34:33;99126.09;;;11.04;61.59
2675;BME280;1347;42.122;24.746;2023-12-20T12:37:00;99125.16;;;10.82;62.29
2675;BME280;1347;42.122;24.746;2023-12-20T12:39:27;99119.72;;;10.89;61.40
2675;BME280;1347;42.122;24.746;2023-12-20T12:41:55;99112.88;;;10.65;61.87
2675;BME280;1347;42.122;24.746;2023-12-20T12:44:22;99114.84;;;10.65;62.72
2675;BME280;1347;42.122;24.746;2023-12-20T12:46:50;99115.59;;;10.58;62.86
2675;BME280;1347;42.122;24.746;2023-12-20T12:49:19;99108.97;;;10.66;62.95
2675;BME280;1347;42.122;24.746;2023-12-20T12:51:48;99099.13;;;10.58;63.19
2675;BME280;1347;42.122;24.746;2023-12-20T12:54:15;99103.50;;;10.70;63.38
2675;BME280;1347;42.122;24.746;2023-12-20T12:56:43;99096.41;;;10.62;63.55
2675;BME280;1347;42.122;24.746;2023-12-20T12:59:12;99104.72;;;10.73;63.31
2675;BME280;1347;42.122;24.746;2023-12-20T13:01:39;99108.91;;;10.59;63.81
2675;BME280;1347;42.122;24.746;2023-12-20T13:04:06;99104.97;;;10.53;64.57
2675;BME280;1347;42.122;24.746;2023-12-20T13:06:36;99094.66;;;10.40;66.25
2675;BME280;1347;42.122;24.746;2023-12-20T13:09:05;99097.84;;;10.45;67.36
2675;BME280;1347;42.122;24.746;2023-12-20T13:11:33;99093.84;;;10.36;68.49